Terminal Aerodrome Forecast
Issued by NWS Shreveport, LA

Home | Current Version | Previous Version | Text Only | Print | Product List | Glossary On
Versions: 1 2 3 4 5 6 7 8 9 10 11 12 13 14 15 16
000
FTUS44 KSHV 181139
TAFELD
TAF
KELD 181139Z 1812/1912 00000KT 3SM BR OVC003
      TEMPO 1813/1817 1SM BR OVC002
     FM181700 VRB03KT 1SM BR OVC003
     FM181900 VRB03KT 4SM BR OVC004
     FM190100 VRB03KT 2SM BR OVC003
     FM190600 VRB03KT 1SM BR OVC002=

USA.gov is the U.S. government's official web portal to all federal, state and local government web resources and services.